Terminal Aerodrome Forecast
Issued by NWS

Home | Current Version | Previous Version | Text Only | Print | Product List | Glossary On
Versions: 1 2 3 4 5 6 7 8 9 10 11 12 13 14 15 16 17 18 19 20 21
000
FTUS44 KOUN 051120
TAFGAG
TAF
KGAG 051120Z 0512/0612 18013KT P6SM BKN250
     FM051500 18015G23KT P6SM SCT250
     FM060000 17013KT P6SM SCT250=

USA.gov is the U.S. government's official web portal to all federal, state and local government web resources and services.